createdAt,value
2019-04-29T00:00:17.261Z,8.10
2019-04-29T00:02:43.622Z,7.80
2019-04-29T00:05:10.557Z,7.80
2019-04-29T00:07:38.160Z,7.80
2019-04-29T00:10:07.256Z,7.70
2019-04-29T00:12:33.985Z,7.50
2019-04-29T00:15:07.873Z,7.40
2019-04-29T00:17:36.336Z,7.50
2019-04-29T00:20:09.884Z,7.60
2019-04-29T00:22:36.329Z,7.30
2019-04-29T00:25:03.541Z,7.00
2019-04-29T00:27:30.001Z,6.90
2019-04-29T00:29:56.228Z,7.00
2019-04-29T00:32:22.918Z,7.00
2019-04-29T00:34:49.472Z,7.10
2019-04-29T00:37:34.345Z,7.20
2019-04-29T00:40:08.226Z,7.30
2019-04-29T00:42:36.832Z,7.50
2019-04-29T00:45:05.777Z,7.60
2019-04-29T00:47:51.949Z,7.70
2019-04-29T00:50:18.466Z,7.70
2019-04-29T00:52:44.738Z,7.60
2019-04-29T00:55:16.539Z,7.60
2019-04-29T00:57:42.905Z,7.60
2019-04-29T01:00:13.367Z,7.60
2019-04-29T01:02:39.975Z,7.70
2019-04-29T01:05:06.417Z,7.40
2019-04-29T01:07:32.814Z,7.00
2019-04-29T01:09:59.381Z,6.70
2019-04-29T01:12:26.101Z,6.80
2019-04-29T01:14:52.703Z,6.90
2019-04-29T01:17:19.038Z,6.90
2019-04-29T01:19:45.505Z,6.90
2019-04-29T01:22:11.764Z,7.00
2019-04-29T01:24:38.394Z,7.20
2019-04-29T01:27:06.935Z,7.30
2019-04-29T01:29:34.185Z,7.30
2019-04-29T01:32:00.781Z,7.00
2019-04-29T01:34:35.478Z,7.00
2019-04-29T01:37:01.836Z,7.20
2019-04-29T01:39:30.436Z,7.20
2019-04-29T01:41:58.617Z,7.10
2019-04-29T01:44:26.931Z,7.20
2019-04-29T01:46:54.505Z,7.10
2019-04-29T01:49:21.176Z,6.90
2019-04-29T01:51:47.780Z,6.90
2019-04-29T01:54:14.440Z,6.90
2019-04-29T01:56:41.058Z,6.90
2019-04-29T01:59:07.716Z,6.90
2019-04-29T02:01:34.337Z,7.10
2019-04-29T02:04:00.592Z,7.20
2019-04-29T02:06:27.304Z,7.20
2019-04-29T02:08:55.174Z,7.30
2019-04-29T02:11:21.709Z,7.30
2019-04-29T02:13:48.368Z,7.20
2019-04-29T02:16:15.090Z,7.20
2019-04-29T02:18:41.657Z,7.20
2019-04-29T02:21:08.262Z,7.10
2019-04-29T02:23:36.832Z,7.00
2019-04-29T02:26:03.192Z,6.90
2019-04-29T02:28:29.845Z,7.00
2019-04-29T02:30:56.659Z,7.10
2019-04-29T02:33:23.133Z,6.90
2019-04-29T02:35:49.757Z,6.60
2019-04-29T02:38:30.259Z,6.40
2019-04-29T02:41:04.406Z,6.40
2019-04-29T02:43:32.891Z,6.40
2019-04-29T02:45:59.222Z,6.30
2019-04-29T02:48:29.998Z,6.20
2019-04-29T02:50:53.758Z,5.90
2019-04-29T02:53:20.369Z,5.70
2019-04-29T02:55:48.534Z,5.70
2019-04-29T02:58:34.659Z,5.80
2019-04-29T03:01:19.928Z,5.90
2019-04-29T03:03:50.798Z,5.80
2019-04-29T03:06:17.450Z,5.70
2019-04-29T03:08:44.129Z,5.60
2019-04-29T03:11:11.524Z,5.60
2019-04-29T03:13:38.229Z,5.80
2019-04-29T03:16:04.803Z,5.90
2019-04-29T03:18:32.931Z,5.90
2019-04-29T03:21:03.826Z,5.90
2019-04-29T03:23:30.519Z,5.60
2019-04-29T03:25:57.196Z,5.70
2019-04-29T03:28:23.691Z,5.80
2019-04-29T03:30:50.331Z,5.70
2019-04-29T03:33:16.696Z,5.70
2019-04-29T03:35:43.298Z,5.60
2019-04-29T03:38:09.863Z,5.60
2019-04-29T03:40:36.477Z,5.60
2019-04-29T03:43:03.349Z,5.80
2019-04-29T03:45:29.762Z,5.80
2019-04-29T03:47:56.414Z,5.90
2019-04-29T03:50:23.029Z,6.00
2019-04-29T03:52:50.558Z,6.10
2019-04-29T03:55:17.188Z,6.20
2019-04-29T03:57:43.766Z,5.80
2019-04-29T04:00:12.533Z,5.60
2019-04-29T04:02:43.886Z,5.90
2019-04-29T04:08:21.129Z,6.00
2019-04-29T04:10:48.205Z,6.10
2019-04-29T04:13:14.908Z,6.00
2019-04-29T04:15:41.642Z,6.00
2019-04-29T04:18:15.605Z,5.90
2019-04-29T04:20:42.181Z,5.80
2019-04-29T04:23:08.750Z,5.80
2019-04-29T04:25:35.558Z,5.90
2019-04-29T04:28:02.225Z,6.00
2019-04-29T04:30:28.639Z,6.00
2019-04-29T04:32:55.317Z,5.80
2019-04-29T04:35:21.692Z,5.90
2019-04-29T04:37:48.182Z,5.70
2019-04-29T04:40:22.919Z,5.50
2019-04-29T04:42:49.237Z,5.50
2019-04-29T04:45:16.380Z,5.50
2019-04-29T04:47:42.934Z,5.50
2019-04-29T04:50:10.121Z,5.50
2019-04-29T04:52:36.610Z,5.70
2019-04-29T04:55:05.945Z,5.60
2019-04-29T04:57:32.328Z,5.60
2019-04-29T04:59:58.982Z,5.40
2019-04-29T05:02:26.513Z,5.50
2019-04-29T05:04:53.036Z,5.60
2019-04-29T05:07:19.298Z,5.70
2019-04-29T05:09:45.507Z,5.80
2019-04-29T05:12:14.115Z,5.80
2019-04-29T05:14:39.772Z,5.90
2019-04-29T05:17:05.997Z,5.90
2019-04-29T05:19:32.241Z,6.10
2019-04-29T05:21:58.484Z,6.30
2019-04-29T05:24:24.761Z,6.50
2019-04-29T05:26:51.157Z,6.50
2019-04-29T05:29:17.917Z,6.50
2019-04-29T05:31:44.453Z,6.70
2019-04-29T05:34:11.621Z,6.90
2019-04-29T05:36:40.015Z,7.00
2019-04-29T05:39:08.901Z,7.00
2019-04-29T05:41:36.394Z,7.10
2019-04-29T05:44:04.982Z,7.20
2019-04-29T05:46:33.129Z,7.10
2019-04-29T05:49:02.331Z,7.20
2019-04-29T05:51:29.687Z,7.30
2019-04-29T05:53:57.905Z,7.40
2019-04-29T05:56:24.328Z,7.50
2019-04-29T05:58:50.937Z,7.50
2019-04-29T06:01:19.044Z,7.80
2019-04-29T06:03:45.292Z,8.00
2019-04-29T06:06:12.382Z,8.10
2019-04-29T06:08:39.486Z,8.30
2019-04-29T06:11:06.920Z,8.50
2019-04-29T06:13:33.142Z,8.50
2019-04-29T06:15:59.377Z,8.50
2019-04-29T06:18:25.632Z,8.80
2019-04-29T06:20:51.765Z,8.70
2019-04-29T06:23:19.025Z,8.90
2019-04-29T06:25:46.049Z,8.90
2019-04-29T06:28:12.301Z,9.40
2019-04-29T06:30:40.596Z,9.50
2019-04-29T06:33:06.696Z,9.20
2019-04-29T06:35:32.964Z,9.50
2019-04-29T06:37:59.218Z,9.90
2019-04-29T06:40:25.440Z,10.20
2019-04-29T06:42:53.467Z,10.60
2019-04-29T06:45:19.804Z,11.00
2019-04-29T06:47:46.150Z,11.10
2019-04-29T06:50:13.477Z,11.30
2019-04-29T06:52:39.724Z,11.70
2019-04-29T06:55:06.154Z,11.70
2019-04-29T06:57:33.616Z,11.80
2019-04-29T06:59:59.770Z,11.90
2019-04-29T07:02:25.989Z,13.00
2019-04-29T07:04:52.364Z,14.00
2019-04-29T07:07:18.584Z,14.00
2019-04-29T07:09:44.841Z,15.20
2019-04-29T07:12:12.459Z,16.80
2019-04-29T07:14:39.094Z,18.40
2019-04-29T07:17:05.925Z,19.90
2019-04-29T07:19:33.407Z,20.50
2019-04-29T07:21:59.652Z,20.60
2019-04-29T07:24:25.972Z,21.30
2019-04-29T07:26:52.218Z,22.40
2019-04-29T07:29:18.887Z,23.30
2019-04-29T07:31:45.700Z,23.70
2019-04-29T07:34:11.842Z,23.10
2019-04-29T07:36:38.121Z,20.80
2019-04-29T07:39:05.688Z,19.80
2019-04-29T07:41:32.041Z,19.50
2019-04-29T07:43:59.306Z,19.50
2019-04-29T07:46:27.572Z,19.50
2019-04-29T07:49:01.228Z,19.00
2019-04-29T07:51:22.329Z,18.90
2019-04-29T07:53:48.585Z,18.10
2019-04-29T07:56:14.921Z,17.60
2019-04-29T07:58:41.162Z,16.70
2019-04-29T08:01:07.485Z,17.20
2019-04-29T08:03:33.836Z,17.10
2019-04-29T08:06:00.274Z,17.00
2019-04-29T08:08:28.429Z,16.90
2019-04-29T08:10:56.735Z,18.00
2019-04-29T08:13:25.313Z,19.90
2019-04-29T08:15:51.528Z,20.20
2019-04-29T08:18:18.217Z,21.30
2019-04-29T08:20:44.618Z,22.90
2019-04-29T08:23:12.104Z,22.20
2019-04-29T08:25:38.342Z,21.50
2019-04-29T08:28:04.706Z,22.00
2019-04-29T08:30:31.016Z,22.10
2019-04-29T08:32:57.273Z,23.30
2019-04-29T08:35:23.536Z,23.90
2019-04-29T08:37:49.804Z,23.00
2019-04-29T08:40:17.035Z,22.30
2019-04-29T08:42:52.030Z,22.30
2019-04-29T08:45:20.140Z,20.20
2019-04-29T08:47:48.270Z,20.00
2019-04-29T08:50:14.633Z,20.40
2019-04-29T08:52:40.881Z,21.10
2019-04-29T08:55:07.247Z,21.40
2019-04-29T08:57:36.572Z,22.30
2019-04-29T09:00:04.311Z,21.40
2019-04-29T09:02:34.975Z,21.40
2019-04-29T09:04:58.592Z,21.90
2019-04-29T09:07:24.804Z,22.40
2019-04-29T09:09:51.021Z,23.30
2019-04-29T09:12:19.400Z,24.70
2019-04-29T09:14:45.506Z,26.80
2019-04-29T09:17:20.294Z,25.40
2019-04-29T09:19:39.793Z,25.40
2019-04-29T09:22:08.021Z,24.80
2019-04-29T09:24:37.141Z,25.70
2019-04-29T09:27:17.545Z,27.30
2019-04-29T09:29:46.399Z,26.70
2019-04-29T09:32:11.920Z,24.30
2019-04-29T09:34:38.148Z,23.00
2019-04-29T09:37:04.512Z,22.90
2019-04-29T09:39:42.814Z,23.20
2019-04-29T09:42:08.053Z,24.00
2019-04-29T09:47:14.427Z,25.30
2019-04-29T09:49:40.681Z,24.50
2019-04-29T09:52:06.902Z,24.30
2019-04-29T09:54:33.181Z,24.00
2019-04-29T09:56:59.408Z,25.60
2019-04-29T09:59:33.745Z,26.90
2019-04-29T10:02:02.064Z,28.30
2019-04-29T10:04:30.341Z,26.30
2019-04-29T10:06:58.169Z,24.00
2019-04-29T10:09:24.492Z,22.20
2019-04-29T10:11:50.726Z,20.50
2019-04-29T10:14:17.083Z,18.60
2019-04-29T10:16:51.166Z,17.40
2019-04-29T10:19:17.892Z,17.30
2019-04-29T10:21:44.046Z,17.80
2019-04-29T10:24:10.955Z,18.50
2019-04-29T10:26:37.286Z,19.20
2019-04-29T10:29:18.490Z,19.80
2019-04-29T10:31:42.505Z,19.60
2019-04-29T10:34:08.824Z,19.10
2019-04-29T10:36:35.069Z,19.00
2019-04-29T10:39:03.425Z,18.50
2019-04-29T10:44:38.456Z,17.50
2019-04-29T10:47:09.893Z,17.90
2019-04-29T10:49:40.574Z,21.70
2019-04-29T10:52:07.008Z,23.80
2019-04-29T10:54:34.002Z,24.90
2019-04-29T10:57:00.339Z,23.50
2019-04-29T10:59:35.614Z,22.80
2019-04-29T11:02:17.502Z,21.60
2019-04-29T11:04:45.048Z,22.50
2019-04-29T11:07:14.318Z,25.20
2019-04-29T11:09:46.327Z,24.60
2019-04-29T11:12:13.337Z,25.50
2019-04-29T11:14:39.589Z,27.70
2019-04-29T11:17:15.861Z,27.80
2019-04-29T11:19:35.026Z,28.70
2019-04-29T11:22:03.304Z,30.40
2019-04-29T11:24:46.833Z,31.10
2019-04-29T11:27:15.282Z,32.10
2019-04-29T11:29:41.504Z,29.90
2019-04-29T11:32:09.548Z,27.50
2019-04-29T11:34:53.494Z,26.70
2019-04-29T11:37:19.642Z,28.70
2019-04-29T11:39:46.281Z,29.40
2019-04-29T11:42:14.669Z,26.60
2019-04-29T11:44:40.988Z,25.20
2019-04-29T11:47:07.616Z,24.10
2019-04-29T11:49:35.840Z,23.30
2019-04-29T11:52:09.662Z,22.20
2019-04-29T11:54:30.106Z,22.00
2019-04-29T11:56:56.505Z,20.10
2019-04-29T11:59:33.793Z,20.20
2019-04-29T12:02:11.213Z,21.30
2019-04-29T12:04:42.106Z,24.60
2019-04-29T12:07:07.457Z,26.40
2019-04-29T12:09:34.712Z,25.30
2019-04-29T12:12:01.135Z,26.00
2019-04-29T12:14:37.949Z,25.70
2019-04-29T12:17:20.233Z,27.90
2019-04-29T12:19:48.409Z,28.70
2019-04-29T12:22:26.822Z,28.40
2019-04-29T12:24:42.690Z,27.80
2019-04-29T12:27:09.820Z,26.30
2019-04-29T12:29:36.080Z,23.70
2019-04-29T12:32:26.949Z,21.70
2019-04-29T12:34:55.213Z,19.80
2019-04-29T12:37:38.354Z,19.20
2019-04-29T12:40:24.635Z,20.30
2019-04-29T12:42:55.116Z,22.60
2019-04-29T12:45:25.701Z,21.70
2019-04-29T12:47:52.017Z,22.10
2019-04-29T12:50:21.727Z,23.70
2019-04-29T12:52:46.348Z,26.20
2019-04-29T12:55:20.385Z,28.10
2019-04-29T12:57:42.497Z,27.40
2019-04-29T13:00:11.461Z,27.20
2019-04-29T13:02:55.594Z,24.30
2019-04-29T13:05:24.510Z,22.30
2019-04-29T13:07:58.401Z,20.90
2019-04-29T13:10:29.537Z,19.30
2019-04-29T13:12:58.100Z,18.40
2019-04-29T13:15:33.307Z,18.70
2019-04-29T13:18:12.739Z,20.00
2019-04-29T13:20:35.369Z,21.60
2019-04-29T13:23:16.835Z,24.50
2019-04-29T13:25:29.724Z,24.60
2019-04-29T13:28:03.749Z,21.80
2019-04-29T13:30:24.102Z,20.80
2019-04-29T13:32:50.359Z,19.90
2019-04-29T13:35:16.678Z,19.10
2019-04-29T13:37:42.933Z,18.70
2019-04-29T13:40:10.293Z,18.30
2019-04-29T13:42:37.190Z,18.10
2019-04-29T13:45:13.611Z,18.40
2019-04-29T13:47:55.854Z,18.20
2019-04-29T13:50:38.887Z,17.80
2019-04-29T13:52:52.034Z,17.50
2019-04-29T13:55:46.196Z,17.20
2019-04-29T13:57:49.520Z,17.10
2019-04-29T14:00:28.997Z,17.30
2019-04-29T14:03:00.095Z,17.40
2019-04-29T14:05:28.409Z,17.30
2019-04-29T14:07:54.645Z,17.50
2019-04-29T14:10:20.877Z,18.00
2019-04-29T14:12:49.365Z,18.00
2019-04-29T14:15:15.536Z,17.90
2019-04-29T14:17:41.770Z,18.00
2019-04-29T14:20:10.711Z,18.10
2019-04-29T14:22:37.056Z,18.00
2019-04-29T14:25:04.003Z,18.10
2019-04-29T14:27:30.258Z,18.00
2019-04-29T14:29:56.893Z,17.60
2019-04-29T14:32:34.605Z,17.50
2019-04-29T14:34:55.395Z,17.40
2019-04-29T14:37:25.326Z,17.10
2019-04-29T14:39:49.680Z,17.10
2019-04-29T14:42:32.988Z,17.20
2019-04-29T14:45:06.906Z,17.40
2019-04-29T14:47:43.855Z,17.60
2019-04-29T14:50:15.534Z,17.90
2019-04-29T14:52:40.331Z,17.70
2019-04-29T14:55:06.650Z,17.70
2019-04-29T14:57:32.973Z,17.70
2019-04-29T14:59:59.683Z,17.60
2019-04-29T15:02:27.141Z,17.50
2019-04-29T15:04:53.474Z,17.40
2019-04-29T15:07:19.705Z,17.40
2019-04-29T15:09:55.870Z,17.40
2019-04-29T15:12:51.105Z,17.30
2019-04-29T15:15:12.384Z,17.10
2019-04-29T15:17:49.472Z,17.00
2019-04-29T15:20:20.579Z,17.00
2019-04-29T15:22:46.760Z,17.30
2019-04-29T15:25:41.085Z,17.40
2019-04-29T15:28:04.766Z,17.30
2019-04-29T15:30:31.689Z,17.20
2019-04-29T15:32:59.769Z,17.10
2019-04-29T15:35:26.180Z,17.00
2019-04-29T15:37:52.356Z,16.90
2019-04-29T15:40:20.745Z,16.60
2019-04-29T15:42:51.220Z,16.60
2019-04-29T15:45:14.785Z,16.60
2019-04-29T15:47:41.563Z,16.60
2019-04-29T15:50:18.668Z,16.70
2019-04-29T15:52:37.416Z,17.00
2019-04-29T15:55:04.460Z,17.40
2019-04-29T15:57:30.919Z,17.70
2019-04-29T15:59:59.742Z,17.90
2019-04-29T16:02:25.701Z,18.10
2019-04-29T16:05:04.598Z,18.10
2019-04-29T16:07:39.865Z,18.00
2019-04-29T16:10:14.490Z,17.80
2019-04-29T16:12:50.950Z,17.80
2019-04-29T16:15:18.569Z,17.40
2019-04-29T16:17:47.835Z,17.30
2019-04-29T16:20:14.277Z,17.10
2019-04-29T16:22:40.493Z,17.20
2019-04-29T16:25:11.101Z,17.10
2019-04-29T16:27:35.015Z,17.40
2019-04-29T16:30:01.475Z,17.40
2019-04-29T16:32:32.621Z,17.20
2019-04-29T16:34:58.794Z,17.00
2019-04-29T16:37:31.883Z,16.90
2019-04-29T16:39:59.691Z,16.90
2019-04-29T16:42:25.939Z,17.10
2019-04-29T16:44:52.254Z,17.20
2019-04-29T16:47:19.120Z,17.20
2019-04-29T16:49:45.345Z,17.10
2019-04-29T16:52:11.560Z,17.00
2019-04-29T16:54:37.926Z,16.90
2019-04-29T16:57:04.771Z,16.70
2019-04-29T16:59:31.426Z,16.40
2019-04-29T17:01:58.162Z,16.10
2019-04-29T17:04:24.596Z,15.90
2019-04-29T17:07:11.358Z,15.90
2019-04-29T17:09:29.702Z,15.90
2019-04-29T17:11:58.295Z,16.00
2019-04-29T17:14:24.417Z,16.00
2019-04-29T17:16:50.641Z,15.90
2019-04-29T17:19:17.969Z,15.90
2019-04-29T17:21:44.240Z,15.90
2019-04-29T17:24:10.590Z,15.80
2019-04-29T17:26:47.537Z,15.70
2019-04-29T17:29:38.301Z,15.70
2019-04-29T17:32:07.794Z,15.60
2019-04-29T17:34:58.223Z,15.60
2019-04-29T17:37:04.637Z,15.60
2019-04-29T17:39:31.006Z,15.60
2019-04-29T17:41:57.353Z,15.40
2019-04-29T17:44:40.581Z,15.30
2019-04-29T17:47:25.392Z,15.30
2019-04-29T17:49:53.560Z,15.20
2019-04-29T17:52:21.869Z,15.00
2019-04-29T17:54:49.990Z,14.90
2019-04-29T17:57:28.649Z,15.00
2019-04-29T18:00:08.680Z,15.00
2019-04-29T18:02:46.300Z,14.90
2019-04-29T18:05:26.917Z,14.90
2019-04-29T18:07:53.149Z,14.90
2019-04-29T18:10:24.444Z,14.80
2019-04-29T18:12:49.327Z,14.70
2019-04-29T18:15:20.152Z,14.60
2019-04-29T18:17:45.877Z,14.50
2019-04-29T18:20:30.801Z,14.40
2019-04-29T18:22:56.104Z,14.30
2019-04-29T18:25:30.757Z,14.10
2019-04-29T18:27:53.176Z,14.10
2019-04-29T18:30:33.199Z,14.00
2019-04-29T18:32:50.256Z,13.90
2019-04-29T18:35:17.101Z,13.80
2019-04-29T18:37:43.502Z,13.70
2019-04-29T18:40:10.332Z,13.60
2019-04-29T18:42:38.355Z,13.50
2019-04-29T18:45:07.072Z,13.50
2019-04-29T18:47:35.464Z,13.40
2019-04-29T18:50:05.035Z,13.30
2019-04-29T18:52:31.548Z,13.30
2019-04-29T18:54:57.674Z,13.20
2019-04-29T18:57:30.071Z,13.10
2019-04-29T18:59:51.937Z,13.00
2019-04-29T19:02:18.291Z,12.90
2019-04-29T19:04:56.557Z,12.90
2019-04-29T19:07:23.109Z,12.90
2019-04-29T19:09:49.421Z,12.80
2019-04-29T19:12:15.681Z,12.70
2019-04-29T19:14:42.004Z,12.60
2019-04-29T19:17:08.363Z,12.50
2019-04-29T19:19:35.901Z,12.50
2019-04-29T19:22:07.786Z,12.50
2019-04-29T19:24:35.807Z,12.40
2019-04-29T19:27:00.771Z,12.40
2019-04-29T19:29:27.551Z,12.30
2019-04-29T19:31:54.974Z,12.20
2019-04-29T19:34:21.624Z,12.20
2019-04-29T19:36:50.599Z,12.10
2019-04-29T19:39:16.839Z,12.10
2019-04-29T19:41:49.378Z,12.10
2019-04-29T19:44:15.407Z,12.00
2019-04-29T19:46:41.407Z,12.00
2019-04-29T19:49:10.030Z,11.90
2019-04-29T19:51:39.223Z,11.90
2019-04-29T19:54:05.168Z,11.90
2019-04-29T19:56:31.592Z,11.70
2019-04-29T19:58:58.488Z,11.70
2019-04-29T20:01:29.907Z,11.70
2019-04-29T20:04:06.451Z,11.70
2019-04-29T20:06:33.294Z,11.60
2019-04-29T20:09:01.974Z,11.60
2019-04-29T20:11:32.862Z,11.60
2019-04-29T20:14:04.992Z,11.50
2019-04-29T20:16:43.034Z,11.50
2019-04-29T20:19:18.074Z,11.40
2019-04-29T20:21:42.752Z,11.40
2019-04-29T20:24:15.099Z,11.40
2019-04-29T20:26:37.274Z,11.40
2019-04-29T20:29:07.047Z,11.40
2019-04-29T20:31:35.621Z,11.30
2019-04-29T20:34:01.616Z,11.30
2019-04-29T20:36:38.291Z,11.30
2019-04-29T20:38:56.360Z,11.20
2019-04-29T20:41:37.658Z,11.20
2019-04-29T20:43:51.293Z,11.20
2019-04-29T20:46:18.199Z,11.30
2019-04-29T20:48:45.631Z,11.10
2019-04-29T20:51:14.121Z,11.00
2019-04-29T20:53:42.420Z,10.90
2019-04-29T20:56:12.483Z,11.00
2019-04-29T20:58:37.184Z,10.90
2019-04-29T21:01:10.926Z,10.80
2019-04-29T21:03:35.579Z,10.80
2019-04-29T21:06:03.158Z,10.70
2019-04-29T21:08:30.436Z,10.70
2019-04-29T21:10:58.586Z,10.70
2019-04-29T21:13:26.704Z,10.60
2019-04-29T21:16:07.064Z,10.50
2019-04-29T21:18:35.318Z,10.50
2019-04-29T21:21:04.615Z,10.50
2019-04-29T21:23:31.510Z,10.40
2019-04-29T21:26:00.459Z,10.30
2019-04-29T21:28:26.086Z,10.50
2019-04-29T21:30:52.209Z,10.50
2019-04-29T21:33:21.434Z,10.50
2019-04-29T21:35:49.535Z,10.50
2019-04-29T21:38:26.013Z,10.40
2019-04-29T21:41:09.398Z,10.40
2019-04-29T21:43:37.696Z,10.40
2019-04-29T21:46:05.719Z,10.40
2019-04-29T21:48:35.133Z,10.40
2019-04-29T21:51:01.434Z,10.40
2019-04-29T21:53:31.636Z,10.40
2019-04-29T21:55:59.653Z,10.30
2019-04-29T21:58:28.609Z,10.40
2019-04-29T22:00:59.064Z,10.20
2019-04-29T22:03:27.838Z,10.10
2019-04-29T22:08:38.691Z,10.10
2019-04-29T22:11:06.957Z,10.10
2019-04-29T22:13:35.503Z,10.10
2019-04-29T22:16:02.353Z,10.00
2019-04-29T22:18:29.261Z,10.10
2019-04-29T22:20:55.535Z,10.10
2019-04-29T22:23:21.747Z,10.20
2019-04-29T22:25:47.986Z,10.00
2019-04-29T22:28:17.292Z,10.00
2019-04-29T22:30:42.687Z,9.90
2019-04-29T22:33:09.604Z,9.90
2019-04-29T22:35:39.483Z,9.90
2019-04-29T22:38:07.684Z,10.00
2019-04-29T22:40:34.117Z,10.00
2019-04-29T22:43:08.768Z,10.10
2019-04-29T22:45:33.912Z,10.00
2019-04-29T22:48:12.121Z,10.10
2019-04-29T22:50:27.857Z,10.00
2019-04-29T22:52:56.700Z,9.90
2019-04-29T22:55:22.376Z,9.70
2019-04-29T22:57:48.530Z,9.70
2019-04-29T23:00:17.344Z,9.70
2019-04-29T23:02:43.618Z,9.70
2019-04-29T23:05:09.973Z,9.60
2019-04-29T23:07:37.789Z,9.70
2019-04-29T23:10:05.782Z,9.70
2019-04-29T23:12:32.122Z,9.60
2019-04-29T23:14:58.594Z,9.60
2019-04-29T23:17:25.500Z,9.60
2019-04-29T23:19:55.146Z,9.60
2019-04-29T23:22:42.433Z,9.70
2019-04-29T23:25:16.462Z,9.40
2019-04-29T23:27:43.293Z,9.40
2019-04-29T23:30:13.618Z,9.40
2019-04-29T23:32:44.283Z,9.30
2019-04-29T23:35:10.031Z,9.40
2019-04-29T23:37:36.602Z,9.50
2019-04-29T23:40:05.848Z,9.50
2019-04-29T23:42:32.377Z,9.50
2019-04-29T23:44:59.014Z,9.50
2019-04-29T23:47:25.822Z,9.30
2019-04-29T23:49:52.702Z,9.30
2019-04-29T23:52:19.322Z,9.30
2019-04-29T23:54:48.383Z,9.40
2019-04-29T23:57:27.578Z,9.50
